Map

Track Data

SID SEASON NUMBER BASIN SUBBASIN NAME ISO_TIME NATURE LAT LON WMO_WIND WMO_PRES WMO_AGENCY TRACK_TYPE DIST2LAND LANDFALL IFLAG USA_AGENCY USA_ATCF_ID USA_LAT USA_LON USA_RECORD USA_STATUS USA_WIND USA_PRES USA_SSHS USA_R34_NE USA_R34_SE USA_R34_SW USA_R34_NW USA_R50_NE USA_R50_SE USA_R50_SW USA_R50_NW USA_R64_NE USA_R64_SE USA_R64_SW USA_R64_NW USA_POCI USA_ROCI USA_RMW USA_EYE TOKYO_LAT TOKYO_LON TOKYO_GRADE TOKYO_WIND TOKYO_PRES TOKYO_R50_DIR TOKYO_R50_LONG TOKYO_R50_SHORT TOKYO_R30_DIR TOKYO_R30_LONG TOKYO_R30_SHORT TOKYO_LAND CMA_LAT CMA_LON CMA_CAT CMA_WIND CMA_PRES HKO_LAT HKO_LON HKO_CAT HKO_WIND HKO_PRES NEWDELHI_LAT NEWDELHI_LON NEWDELHI_GRADE NEWDELHI_WIND NEWDELHI_PRES NEWDELHI_CI NEWDELHI_DP NEWDELHI_POCI REUNION_LAT REUNION_LON REUNION_TYPE REUNION_WIND REUNION_PRES REUNION_TNUM REUNION_CI REUNION_RMW REUNION_R34_NE REUNION_R34_SE REUNION_R34_SW REUNION_R34_NW REUNION_R50_NE REUNION_R50_SE REUNION_R50_SW REUNION_R50_NW REUNION_R64_NE REUNION_R64_SE REUNION_R64_SW REUNION_R64_NW BOM_LAT BOM_LON BOM_TYPE BOM_WIND BOM_PRES BOM_TNUM BOM_CI BOM_RMW BOM_R34_NE BOM_R34_SE BOM_R34_SW BOM_R34_NW BOM_R50_NE BOM_R50_SE BOM_R50_SW BOM_R50_NW BOM_R64_NE BOM_R64_SE BOM_R64_SW BOM_R64_NW BOM_ROCI BOM_POCI BOM_EYE BOM_POS_METHOD BOM_PRES_METHOD NADI_LAT NADI_LON NADI_CAT NADI_WIND NADI_PRES WELLINGTON_LAT WELLINGTON_LON WELLINGTON_WIND WELLINGTON_PRES DS824_LAT DS824_LON DS824_STAGE DS824_WIND DS824_PRES TD9636_LAT TD9636_LON TD9636_STAGE TD9636_WIND TD9636_PRES TD9635_LAT TD9635_LON TD9635_WIND TD9635_PRES TD9635_ROCI NEUMANN_LAT NEUMANN_LON NEUMANN_CLASS NEUMANN_WIND NEUMANN_PRES MLC_LAT MLC_LON MLC_CLASS MLC_WIND MLC_PRES USA_GUST BOM_GUST BOM_GUST_PER REUNION_GUST REUNION_GUST_PER USA_SEAHGT USA_SEARAD_NE USA_SEARAD_SE USA_SEARAD_SW USA_SEARAD_NW STORM_SPEED STORM_DIR
1895091S15053 1895 5 SI MM NOT_NAMED 1895-04-01 06:00:00 NR -14.5000 53.3000 reunion main 311 308 _____O________ -1 -14.5000 53.3000 99 9.90000 1 149
1895091S15053 1895 5 SI MM NOT_NAMED 1895-04-01 09:00:00 NR -14.5589 53.3467 main 308 308 _____P________ -1 -14.5589 53.3467 99 2 143
1895091S15053 1895 5 SI MM NOT_NAMED 1895-04-01 12:00:00 NR -14.6216 53.3996 main 318 316 _____P________ -1 -14.6216 53.3996 99 2 141
1895091S15053 1895 5 SI MM NOT_NAMED 1895-04-01 15:00:00 NR -14.6923 53.4650 main 327 325 _____P________ -1 -14.6923 53.4650 99 2 137
1895091S15053 1895 5 SI MM NOT_NAMED 1895-04-01 18:00:00 NR -14.7747 53.5493 main 325 325 _____P________ -1 -14.7747 53.5493 99 3 134
1895091S15053 1895 5 SI MM NOT_NAMED 1895-04-01 21:00:00 NR -14.8728 53.6585 main 345 345 _____P________ -1 -14.8728 53.6585 99 3 132
1895091S15053 1895 5 SI MM NOT_NAMED 1895-04-02 00:00:00 NR -14.9905 53.7992 main 355 355 _____P________ -1 -14.9905 53.7992 99 4 130
1895091S15053 1895 5 SI MM NOT_NAMED 1895-04-02 03:00:00 NR -15.1316 53.9775 main 375 375 _____P________ -1 -15.1316 53.9775 99 5 129
1895091S15053 1895 5 SI MM NOT_NAMED 1895-04-02 06:00:00 NR -15.3000 54.2000 reunion main 396 396 _____O________ -1 -15.3000 54.2000 99 9.90000 6 128
1895091S15053 1895 5 SI MM NOT_NAMED 1895-04-02 09:00:00 NR -15.4985 54.4714 main 429 429 _____P________ -1 -15.4985 54.4714 99 7 127
1895091S15053 1895 5 SI MM NOT_NAMED 1895-04-02 12:00:00 NR -15.7262 54.7900 main 462 462 _____P________ -1 -15.7262 54.7900 99 8 126
1895091S15053 1895 5 SI MM NOT_NAMED 1895-04-02 15:00:00 NR -15.9811 55.1521 main 507 484 _____P________ -1 -15.9811 55.1521 99 9 126
1895091S15053 1895 5 SI MM NOT_NAMED 1895-04-02 18:00:00 NR -16.2614 55.5546 main 470 432 _____P________ -1 -16.2614 55.5546 99 10 126
1895091S15053 1895 5 SI MM NOT_NAMED 1895-04-02 21:00:00 NR -16.5653 55.9939 main 422 376 _____P________ -1 -16.5653 55.9939 99 11 126
1895091S15053 1895 5 SI MM NOT_NAMED 1895-04-03 00:00:00 NR -16.8909 56.4668 main 373 330 _____P________ -1 -16.8909 56.4668 99 12 126
1895091S15053 1895 5 SI MM NOT_NAMED 1895-04-03 03:00:00 NR -17.2364 56.9699 main 328 279 _____P________ -1 -17.2364 56.9699 99 12 126
1895091S15053 1895 5 SI MM NOT_NAMED 1895-04-03 06:00:00 NR -17.6000 57.5000 reunion main 279 237 _____O________ -1 -17.6000 57.5000 99 9.90000 13 126
1895091S15053 1895 5 SI MM NOT_NAMED 1895-04-03 09:00:00 NR -18.0089 58.0944 main 238 212 _____P________ -1 -18.0089 58.0944 99 14 126
1895091S15053 1895 5 SI MM NOT_NAMED 1895-04-03 12:00:00 NR -18.4438 58.7305 main 217 209 _____P________ -1 -18.4438 58.7305 99 15 126
1895091S15053 1895 5 SI MM NOT_NAMED 1895-04-03 15:00:00 NR -18.8920 59.3906 main 223 223 _____P________ -1 -18.8920 59.3906 99 15 126
1895091S15053 1895 5 SI MM NOT_NAMED 1895-04-03 18:00:00 NR -19.3409 60.0565 main 265 260 _____P________ -1 -19.3409 60.0565 99 15 125
1895091S15053 1895 5 SI MM NOT_NAMED 1895-04-03 21:00:00 NR -19.7781 60.7097 main 308 308 _____P________ -1 -19.7781 60.7097 99 15 125
1895091S15053 1895 5 SI MM NOT_NAMED 1895-04-04 00:00:00 NR -20.1915 61.3309 main 365 365 _____P________ -1 -20.1915 61.3309 99 14 125
1895091S15053 1895 5 SI MM NOT_NAMED 1895-04-04 03:00:00 NR -20.5693 61.9009 main 428 428 _____P________ -1 -20.5693 61.9009 99 12 125
1895091S15053 1895 5 SI MM NOT_NAMED 1895-04-04 06:00:00 NR -20.9000 62.4000 reunion main 483 483 _____O________ -1 -20.9000 62.4000 99 9.90000 10 125
1895091S15053 1895 5 SI MM NOT_NAMED 1895-04-04 09:00:00 NR -21.1754 62.8135 main 529 529 _____P________ -1 -21.1754 62.8135 99 9 126
1895091S15053 1895 5 SI MM NOT_NAMED 1895-04-04 12:00:00 NR -21.4002 63.1470 main 564 564 _____P________ -1 -21.4002 63.1470 99 7 126
1895091S15053 1895 5 SI MM NOT_NAMED 1895-04-04 15:00:00 NR -21.5819 63.4117 main 599 599 _____P________ -1 -21.5819 63.4117 99 5 127
1895091S15053 1895 5 SI MM NOT_NAMED 1895-04-04 18:00:00 NR -21.7279 63.6187 main 621 621 _____P________ -1 -21.7279 63.6187 99 4 128
1895091S15053 1895 5 SI MM NOT_NAMED 1895-04-04 21:00:00 NR -21.8456 63.7796 main 644 644 _____P________ -1 -21.8456 63.7796 99 3 129
1895091S15053 1895 5 SI MM NOT_NAMED 1895-04-05 00:00:00 NR -21.9422 63.9057 main 657 657 _____P________ -1 -21.9422 63.9057 99 3 130
1895091S15053 1895 5 SI MM NOT_NAMED 1895-04-05 03:00:00 NR -22.0246 64.0086 main 670 670 _____P________ -1 -22.0246 64.0086 99 2 131
1895091S15053 1895 5 SI MM NOT_NAMED 1895-04-05 06:00:00 NR -22.1000 64.1000 reunion main 683 _____O________ -1 -22.1000 64.1000 99 9.90000 2 129

About IBTrACS Database

This database is a web-friendly format of International Best Track Archive for Climate Stewardship (IBTrACS), a global best track data archive curated by NOAA dating back to 1842.

Updated: 2021-11-26